Time;durP1;ratioP1;P1;durP2;ratioP2;P2;SDS_P1;SDS_P2;PMS_P1;PMS_P2;Temp;Humidity;BMP_temperature;BMP_pressure;BME280_temperature;BME280_humidity;BME280_pressure;Samples;Min_cycle;Max_cycle;Signal;HPM_P1;HPM_P2
2022/06/12 00:02:09;;;;;;;10.75;3.42;;;14.20;99.90;;;;;;5019230;28;20546;-59
2022/06/12 00:04:34;;;;;;;11.80;3.92;;;14.20;99.90;;;;;;5019552;28;20053;-59
2022/06/12 00:07:00;;;;;;;12.90;3.30;;;14.10;99.90;;;;;;5019917;28;20056;-59
2022/06/12 00:09:26;;;;;;;13.57;3.40;;;14.10;99.90;;;;;;5018811;28;20505;-59
2022/06/12 00:11:51;;;;;;;12.23;3.53;;;14.10;99.90;;;;;;5020292;28;20049;-58
2022/06/12 00:14:19;;;;;;;11.27;3.13;;;14.10;99.90;;;;;;5018273;28;20070;-59
2022/06/12 00:16:45;;;;;;;12.57;3.30;;;14.10;99.90;;;;;;5002506;28;20046;-59
2022/06/12 00:19:11;;;;;;;10.27;3.60;;;14.10;99.90;;;;;;5018824;28;20057;-58
2022/06/12 00:21:37;;;;;;;14.05;3.60;;;14.00;99.90;;;;;;5019707;28;20053;-59
2022/06/12 00:24:08;;;;;;;10.65;3.63;;;14.00;99.90;;;;;;5019492;28;20050;-59
2022/06/12 00:26:42;;;;;;;11.65;3.38;;;13.90;99.90;;;;;;5018197;28;20053;-59
2022/06/12 00:29:14;;;;;;;12.77;3.35;;;13.90;99.90;;;;;;5020306;28;20050;-59
2022/06/12 00:31:44;;;;;;;10.23;3.70;;;13.80;99.90;;;;;;5018201;28;20069;-59
2022/06/12 00:34:11;;;;;;;13.63;4.03;;;13.80;99.90;;;;;;5019668;28;20082;-58
2022/06/12 00:36:37;;;;;;;11.38;3.55;;;13.80;99.90;;;;;;5018965;28;20038;-58
2022/06/12 00:39:04;;;;;;;13.00;3.45;;;13.80;99.90;;;;;;5018884;28;20104;-59
2022/06/12 00:41:30;;;;;;;10.63;3.53;;;13.70;99.90;;;;;;5019800;28;20041;-58
2022/06/12 00:43:56;;;;;;;15.20;4.63;;;13.70;99.90;;;;;;5017688;28;20073;-59
2022/06/12 00:46:36;;;;;;;13.30;3.80;;;13.60;99.90;;;;;;5019973;28;20057;-58
2022/06/12 00:49:09;;;;;;;11.27;4.30;;;13.60;99.90;;;;;;5018191;28;20044;-59
2022/06/12 00:51:34;;;;;;;12.55;4.57;;;13.40;99.90;;;;;;5019452;28;20042;-59
2022/06/12 00:54:00;;;;;;;13.45;4.85;;;13.50;99.90;;;;;;5019010;28;20045;-59
2022/06/12 00:56:32;;;;;;;12.32;5.10;;;13.50;99.90;;;;;;5018458;28;20054;-59
2022/06/12 00:59:06;;;;;;;10.32;4.03;;;13.50;99.90;;;;;;5019613;28;20541;-59
2022/06/12 01:01:38;;;;;;;12.68;4.35;;;13.50;99.90;;;;;;5017766;28;20490;-60
2022/06/12 01:06:51;;;;;;;12.90;5.38;;;13.40;99.90;;;;;;5018844;28;20068;-58
2022/06/12 01:09:22;;;;;;;13.48;4.55;;;13.40;99.90;;;;;;5018301;28;20092;-59
2022/06/12 01:11:50;;;;;;;13.30;4.07;;;13.50;99.90;;;;;;5019716;28;20049;-59
2022/06/12 01:14:19;;;;;;;12.20;4.13;;;13.50;99.90;;;;;;5017372;28;20096;-58
2022/06/12 01:16:48;;;;;;;17.48;5.03;;;13.30;99.90;;;;;;5019349;28;20045;-59
2022/06/12 01:19:32;;;;;;;15.98;4.35;;;13.30;99.90;;;;;;5018268;28;20046;-59
2022/06/12 01:22:19;;;;;;;13.30;3.95;;;13.40;99.90;;;;;;5018441;28;20560;-60
2022/06/12 01:25:10;;;;;;;15.77;4.93;;;13.30;99.90;;;;;;5019856;28;20485;-60
2022/06/12 01:27:45;;;;;;;13.90;4.40;;;13.30;99.90;;;;;;5018023;28;20053;-60
2022/06/12 01:30:17;;;;;;;14.10;4.93;;;13.30;99.90;;;;;;5018797;28;20498;-60
2022/06/12 01:32:59;;;;;;;15.10;4.85;;;13.30;99.90;;;;;;5019061;28;20752;-59
2022/06/12 01:35:32;;;;;;;13.05;4.47;;;13.30;99.90;;;;;;5017555;28;20054;-60
2022/06/12 01:38:08;;;;;;;13.90;4.57;;;13.20;99.90;;;;;;5021806;28;20069;-60
2022/06/12 01:40:46;;;;;;;11.98;4.32;;;13.30;99.90;;;;;;5021622;28;20037;-60
2022/06/12 01:43:26;;;;;;;13.70;4.20;;;13.20;99.90;;;;;;5022457;28;20080;-60
2022/06/12 01:45:58;;;;;;;17.73;4.05;;;13.20;99.90;;;;;;5022653;28;20088;-57
2022/06/12 01:48:45;;;;;;;13.77;3.95;;;13.30;99.90;;;;;;5021170;28;20054;-59
2022/06/12 01:51:32;;;;;;;14.63;3.63;;;13.10;99.90;;;;;;5022594;28;20056;-60
2022/06/12 01:54:27;;;;;;;12.95;4.18;;;13.20;99.90;;;;;;5022246;28;20042;-59
2022/06/12 01:57:25;;;;;;;10.98;3.53;;;13.10;99.90;;;;;;5020819;28;20405;-59
2022/06/12 02:00:03;;;;;;;10.52;3.78;;;13.10;99.90;;;;;;4999505;28;20077;-59
2022/06/12 02:02:49;;;;;;;12.95;3.63;;;13.00;99.90;;;;;;5022048;28;20038;-58
2022/06/12 02:05:24;;;;;;;11.00;4.00;;;13.00;99.90;;;;;;5020893;28;20124;-59
2022/06/12 02:08:17;;;;;;;13.30;4.25;;;13.00;99.90;;;;;;5022879;28;20085;-59
2022/06/12 02:10:47;;;;;;;13.55;3.58;;;13.00;99.90;;;;;;5021215;28;20050;-58
2022/06/12 02:13:16;;;;;;;15.63;4.07;;;13.00;99.90;;;;;;5021784;28;20042;-59
2022/06/12 02:15:44;;;;;;;15.75;4.15;;;13.00;99.90;;;;;;5021898;28;20037;-59
2022/06/12 02:18:23;;;;;;;12.25;3.70;;;13.00;99.90;;;;;;5020316;28;20069;-59
2022/06/12 02:20:57;;;;;;;12.75;3.90;;;13.10;99.90;;;;;;5022649;28;20561;-59
2022/06/12 02:23:29;;;;;;;10.77;3.95;;;13.00;99.90;;;;;;5020815;28;20042;-58
2022/06/12 02:25:56;;;;;;;16.92;4.43;;;13.00;99.90;;;;;;5021589;28;20038;-59
2022/06/12 02:28:28;;;;;;;11.57;3.63;;;13.00;99.90;;;;;;5021859;28;20056;-59
2022/06/12 02:30:57;;;;;;;;;;;13.00;99.90;;;;;;5020803;28;20050;-59
2022/06/12 02:33:27;;;;;;;9.13;4.00;;;13.00;99.90;;;;;;5022328;28;19925;-58
2022/06/12 02:36:07;;;;;;;10.77;3.80;;;13.10;99.90;;;;;;5020262;28;20042;-58
2022/06/12 02:38:37;;;;;;;12.52;3.88;;;13.10;99.90;;;;;;5021536;28;20069;-58
2022/06/12 02:41:18;;;;;;;13.15;3.78;;;13.00;99.90;;;;;;5021255;28;20405;-59
2022/06/12 02:43:47;;;;;;;14.48;4.03;;;13.00;99.90;;;;;;5020074;28;20089;-59
2022/06/12 02:46:23;;;;;;;13.30;4.10;;;13.00;99.90;;;;;;5022076;28;20480;-59
2022/06/12 02:48:49;;;;;;;9.15;3.60;;;13.10;99.90;;;;;;5020101;28;20052;-58
2022/06/12 02:51:35;;;;;;;11.38;3.97;;;13.10;99.90;;;;;;5021460;28;20117;-58
2022/06/12 02:54:17;;;;;;;10.98;3.92;;;13.00;99.90;;;;;;5021140;28;20059;-58
2022/06/12 02:56:46;;;;;;;23.55;6.32;;;12.90;99.90;;;;;;5019973;28;20554;-59
2022/06/12 02:59:25;;;;;;;10.13;3.70;;;12.90;99.90;;;;;;5021789;28;20049;-60
2022/06/12 03:02:08;;;;;;;14.02;3.97;;;12.90;99.90;;;;;;5019846;28;20053;-59
2022/06/12 03:04:51;;;;;;;11.70;3.75;;;12.90;99.90;;;;;;5020711;28;20104;-59
2022/06/12 03:07:17;;;;;;;12.73;4.07;;;12.80;99.90;;;;;;5021420;28;20037;-59
2022/06/12 03:09:42;;;;;;;12.50;4.50;;;12.70;99.90;;;;;;5019604;28;20048;-59
2022/06/12 03:12:08;;;;;;;13.50;3.80;;;12.70;99.90;;;;;;5021212;28;20060;-59
2022/06/12 03:14:35;;;;;;;13.15;4.38;;;12.60;99.90;;;;;;5019517;28;20053;-60
2022/06/12 03:17:01;;;;;;;17.95;5.80;;;12.50;99.90;;;;;;5020857;28;20065;-59
2022/06/12 03:19:31;;;;;;;12.30;3.83;;;12.50;99.90;;;;;;5020370;28;20038;-59
2022/06/12 03:22:13;;;;;;;13.98;4.20;;;12.60;99.90;;;;;;5020020;28;20106;-59
2022/06/12 03:24:57;;;;;;;19.30;4.53;;;12.60;99.90;;;;;;5021117;28;20042;-59
2022/06/12 03:27:44;;;;;;;12.80;4.05;;;12.60;99.90;;;;;;5019250;28;20054;-59
2022/06/12 03:30:31;;;;;;;12.00;3.90;;;12.50;99.90;;;;;;5020387;28;20049;-59
2022/06/12 03:33:12;;;;;;;16.10;4.13;;;12.60;99.90;;;;;;5003240;28;20136;-60
2022/06/12 03:35:59;;;;;;;13.05;4.43;;;12.50;99.90;;;;;;5019042;28;20611;-59
2022/06/12 03:39:02;;;;;;;15.85;4.18;;;12.50;99.90;;;;;;5020829;28;20045;-60
2022/06/12 03:41:40;;;;;;;15.45;4.50;;;12.50;99.90;;;;;;5020660;28;20386;-60
2022/06/12 03:44:25;;;;;;;13.32;3.95;;;12.50;99.90;;;;;;5018704;28;20046;-58
2022/06/12 03:47:09;;;;;;;10.88;4.20;;;12.50;99.90;;;;;;5002895;28;20077;-60
2022/06/12 03:49:49;;;;;;;14.35;4.07;;;12.60;99.90;;;;;;5019846;28;20132;-60
2022/06/12 03:52:22;;;;;;;16.35;4.57;;;12.60;99.90;;;;;;5019116;28;20413;-59
2022/06/12 03:54:58;;;;;;;14.02;4.10;;;12.60;99.90;;;;;;5020915;28;20070;-59
2022/06/12 03:57:52;;;;;;;12.00;4.70;;;12.80;99.90;;;;;;5018875;28;20081;-59
2022/06/12 04:00:31;;;;;;;13.57;4.20;;;12.80;99.90;;;;;;5019360;28;20768;-59
2022/06/12 04:02:59;;;;;;;13.98;4.97;;;12.90;99.90;;;;;;5020526;28;20109;-59
2022/06/12 04:05:36;;;;;;;14.70;4.18;;;12.90;99.90;;;;;;5018421;28;20176;-57
2022/06/12 04:08:04;;;;;;;13.45;4.40;;;12.90;99.90;;;;;;5020491;28;20057;-59
2022/06/12 04:10:33;;;;;;;16.48;4.10;;;13.10;99.90;;;;;;5018762;28;20046;-59
2022/06/12 04:12:59;;;;;;;13.70;4.07;;;13.10;99.90;;;;;;5019577;28;20125;-59
2022/06/12 04:15:33;;;;;;;14.60;4.38;;;13.10;99.90;;;;;;5001893;28;20530;-59
2022/06/12 04:17:59;;;;;;;15.02;4.38;;;13.10;99.90;;;;;;5018399;28;20077;-60
2022/06/12 04:20:50;;;;;;;14.38;3.95;;;13.30;99.90;;;;;;5020265;28;20053;-59
2022/06/12 04:23:28;;;;;;;15.43;4.50;;;13.30;99.90;;;;;;5018566;28;20050;-59
2022/06/12 04:25:58;;;;;;;15.35;4.60;;;13.40;99.90;;;;;;5019440;28;20129;-59
2022/06/12 04:28:38;;;;;;;14.52;4.40;;;13.40;99.90;;;;;;5019696;28;20030;-59
2022/06/12 04:31:18;;;;;;;16.77;4.32;;;13.50;99.90;;;;;;5018316;28;20073;-59
2022/06/12 04:34:12;;;;;;;17.33;5.20;;;13.50;99.90;;;;;;5019992;28;20053;-59
2022/06/12 04:36:38;;;;;;;14.45;4.63;;;13.50;99.90;;;;;;5019139;28;20085;-59
2022/06/12 04:39:04;;;;;;;15.45;4.93;;;13.50;99.90;;;;;;5018774;28;20042;-60
2022/06/12 04:41:35;;;;;;;17.02;4.35;;;13.40;99.90;;;;;;5019769;28;20061;-59
2022/06/12 04:44:02;;;;;;;14.60;3.35;;;13.50;99.90;;;;;;5017969;28;20117;-59
2022/06/12 04:46:28;;;;;;;18.60;4.47;;;13.40;99.90;;;;;;5019993;28;20050;-59
2022/06/12 04:48:56;;;;;;;21.45;5.45;;;13.50;99.90;;;;;;5018161;28;20050;-59
2022/06/12 04:51:22;;;;;;;17.67;4.78;;;13.50;99.90;;;;;;5019526;28;20045;-59
2022/06/12 04:53:48;;;;;;;14.27;4.50;;;13.60;99.90;;;;;;5018899;28;20050;-60
2022/06/12 04:56:16;;;;;;;15.95;4.70;;;13.70;99.90;;;;;;5018457;28;20066;-60
2022/06/12 04:58:43;;;;;;;16.92;5.18;;;13.80;99.90;;;;;;5019679;28;20061;-59
2022/06/12 05:01:10;;;;;;;17.20;5.20;;;13.90;99.90;;;;;;5017994;28;20117;-59
2022/06/12 05:03:36;;;;;;;18.48;5.18;;;14.10;99.90;;;;;;5020064;28;20045;-59
2022/06/12 05:06:02;;;;;;;18.58;4.68;;;14.20;99.90;;;;;;5017967;28;20046;-59
2022/06/12 05:08:28;;;;;;;16.33;4.68;;;14.30;99.90;;;;;;5019164;28;20133;-60
2022/06/12 05:10:54;;;;;;;15.90;4.43;;;14.40;99.90;;;;;;5018529;28;20042;-58
2022/06/12 05:13:20;;;;;;;16.63;4.15;;;14.60;99.90;;;;;;5021564;28;20038;-60
2022/06/12 05:15:46;;;;;;;17.38;4.43;;;14.70;99.90;;;;;;5023532;28;20493;-59
2022/06/12 05:18:14;;;;;;;16.75;4.88;;;14.80;99.90;;;;;;5021341;28;20348;-59
2022/06/12 05:20:41;;;;;;;16.90;4.57;;;14.80;99.90;;;;;;5023626;28;20046;-59
2022/06/12 05:23:07;;;;;;;17.45;4.40;;;14.90;99.90;;;;;;5021705;28;20088;-60
2022/06/12 05:25:34;;;;;;;18.35;5.07;;;15.00;99.90;;;;;;5022998;28;20046;-59
2022/06/12 05:28:03;;;;;;;15.93;4.28;;;15.10;99.90;;;;;;5022217;28;20053;-59
2022/06/12 05:30:30;;;;;;;18.13;5.00;;;15.10;99.90;;;;;;5022306;28;20088;-59
2022/06/12 05:32:59;;;;;;;21.38;4.72;;;15.20;99.90;;;;;;5023209;28;20058;-59
2022/06/12 05:35:27;;;;;;;18.45;4.63;;;15.30;99.90;;;;;;5021380;28;20048;-60
2022/06/12 05:37:53;;;;;;;18.75;4.95;;;15.40;99.90;;;;;;5023057;28;20046;-60
2022/06/12 05:40:22;;;;;;;20.63;5.03;;;15.50;99.90;;;;;;5021512;28;20076;-59
2022/06/12 05:42:49;;;;;;;15.50;4.70;;;15.70;99.90;;;;;;5022579;28;20525;-59
2022/06/12 05:45:19;;;;;;;17.27;5.13;;;15.80;99.90;;;;;;5004610;28;20076;-59
2022/06/12 05:47:57;;;;;;;17.58;4.93;;;15.70;99.90;;;;;;5004182;28;20141;-59
2022/06/12 05:50:28;;;;;;;22.13;5.55;;;15.80;99.90;;;;;;5023080;28;20397;-59
2022/06/12 05:52:54;;;;;;;23.63;5.43;;;15.70;99.90;;;;;;5021208;28;20104;-59
2022/06/12 05:55:20;;;;;;;21.63;5.57;;;15.70;99.90;;;;;;5022837;28;20037;-59
2022/06/12 05:57:46;;;;;;;17.70;5.22;;;16.00;99.90;;;;;;5021637;28;20110;-59
2022/06/12 06:00:23;;;;;;;19.67;4.97;;;16.00;99.90;;;;;;5004346;28;20168;-60
2022/06/12 06:02:48;;;;;;;21.25;5.47;;;15.90;99.90;;;;;;5022216;28;20074;-59
2022/06/12 06:05:15;;;;;;;22.00;5.80;;;15.70;99.90;;;;;;5020781;28;20072;-61
2022/06/12 06:07:41;;;;;;;25.13;6.78;;;15.80;99.90;;;;;;5022824;28;20046;-59
2022/06/12 06:10:12;;;;;;;22.73;5.80;;;15.90;99.90;;;;;;5020683;28;20102;-59
2022/06/12 06:12:38;;;;;;;21.90;5.35;;;15.80;99.90;;;;;;5022330;28;20057;-59
2022/06/12 06:15:05;;;;;;;25.95;6.43;;;15.90;99.90;;;;;;5021040;28;20094;-59
2022/06/12 06:17:30;;;;;;;21.63;5.72;;;16.00;99.90;;;;;;5021284;28;20062;-60
2022/06/12 06:19:56;;;;;;;24.02;6.38;;;16.10;99.90;;;;;;5022254;28;20054;-59
2022/06/12 06:22:22;;;;;;;25.60;6.18;;;16.20;99.90;;;;;;5020224;28;20379;-60
2022/06/12 06:24:47;;;;;;;23.73;7.45;;;16.00;99.90;;;;;;5022161;28;20122;-60
2022/06/12 06:27:15;;;;;;;22.85;7.03;;;15.90;99.90;;;;;;5020292;28;20056;-60
2022/06/12 06:29:42;;;;;;;26.58;6.88;;;15.80;99.90;;;;;;5022036;28;20049;-59
2022/06/12 06:32:09;;;;;;;22.15;6.45;;;16.10;99.90;;;;;;5020949;28;20062;-59
2022/06/12 06:34:36;;;;;;;22.05;6.47;;;16.20;99.90;;;;;;5021249;28;20041;-59
2022/06/12 06:37:02;;;;;;;24.77;6.50;;;16.40;99.90;;;;;;5021981;28;20049;-59
2022/06/12 06:39:28;;;;;;;27.23;7.43;;;16.50;99.90;;;;;;5020074;28;20073;-59
2022/06/12 06:41:54;;;;;;;26.77;7.40;;;16.60;99.90;;;;;;5022261;28;20061;-59
2022/06/12 06:47:05;;;;;;;27.75;6.85;;;16.50;99.90;;;;;;5021320;28;20640;-59
2022/06/12 06:49:31;;;;;;;26.83;7.90;;;16.80;99.90;;;;;;5021001;28;20045;-59
2022/06/12 06:51:56;;;;;;;23.38;6.32;;;16.80;99.90;;;;;;5020650;28;20038;-59
2022/06/12 06:54:22;;;;;;;23.52;6.47;;;17.00;99.90;;;;;;5021553;28;20492;-60
2022/06/12 06:56:49;;;;;;;23.23;6.88;;;17.10;99.90;;;;;;5019930;28;20080;-59
2022/06/12 06:59:15;;;;;;;18.85;5.85;;;17.10;99.90;;;;;;5021541;28;20056;-59
2022/06/12 07:01:40;;;;;;;28.60;6.45;;;17.20;99.90;;;;;;5019948;28;20046;-59
2022/06/12 07:04:06;;;;;;;22.25;5.57;;;17.40;99.90;;;;;;5003496;28;20052;-60
2022/06/12 07:06:32;;;;;;;21.60;4.97;;;17.40;99.90;;;;;;5020423;28;20105;-59
2022/06/12 07:08:57;;;;;;;24.20;5.00;;;17.30;99.90;;;;;;5020319;28;20086;-60
2022/06/12 07:11:24;;;;;;;22.35;5.28;;;17.50;99.90;;;;;;5021365;28;20119;-59
2022/06/12 07:13:51;;;;;;;19.45;4.82;;;17.70;99.90;;;;;;5001383;28;20184;-60
2022/06/12 07:16:18;;;;;;;20.63;4.90;;;17.60;99.90;;;;;;5003715;28;20349;-60
2022/06/12 07:18:44;;;;;;;16.83;3.70;;;17.60;99.90;;;;;;5001880;28;20895;-59
2022/06/12 07:21:10;;;;;;;21.00;4.50;;;17.90;99.90;;;;;;5020829;28;20065;-60
2022/06/12 07:23:37;;;;;;;19.35;4.75;;;17.80;99.90;;;;;;5002691;28;20460;-60
2022/06/12 07:26:07;;;;;;;19.30;5.30;;;17.90;99.90;;;;;;5019796;28;20050;-60
2022/06/12 07:28:35;;;;;;;18.77;4.38;;;18.10;99.90;;;;;;5020964;28;20065;-60
2022/06/12 07:31:03;;;;;;;17.33;3.85;;;18.00;99.90;;;;;;5019157;28;20068;-60
2022/06/12 07:33:29;;;;;;;18.55;4.80;;;18.00;99.90;;;;;;5003206;28;20045;-59
2022/06/12 07:35:54;;;;;;;17.70;4.05;;;18.00;99.90;;;;;;5018536;28;20053;-59
2022/06/12 07:38:23;;;;;;;15.13;4.05;;;18.20;99.90;;;;;;5020853;28;20046;-59
2022/06/12 07:40:54;;;;;;;17.15;3.85;;;17.90;99.90;;;;;;5019469;28;20042;-60
2022/06/12 07:43:20;;;;;;;15.77;4.38;;;18.10;99.90;;;;;;5019372;28;20058;-60
2022/06/12 07:45:46;;;;;;;11.25;3.70;;;18.40;99.90;;;;;;5002872;28;20046;-60
2022/06/12 07:48:12;;;;;;;13.65;4.05;;;18.40;99.90;;;;;;5018924;28;20048;-59
2022/06/12 07:50:40;;;;;;;14.52;3.42;;;18.50;99.90;;;;;;5020562;28;20040;-60
2022/06/12 07:53:06;;;;;;;18.45;3.70;;;18.50;99.90;;;;;;5018718;28;20081;-60
2022/06/12 07:55:32;;;;;;;15.95;4.00;;;18.80;99.90;;;;;;5019888;28;20049;-60
2022/06/12 07:57:58;;;;;;;17.17;4.60;;;18.80;99.90;;;;;;5019553;28;20045;-60
2022/06/12 08:00:24;;;;;;;18.10;3.70;;;18.60;99.90;;;;;;5019292;28;20034;-60
2022/06/12 08:02:50;;;;;;;19.83;3.80;;;18.60;99.90;;;;;;5020326;28;20052;-60
2022/06/12 08:05:18;;;;;;;17.58;3.83;;;18.70;99.90;;;;;;5018619;28;20124;-60
2022/06/12 08:07:44;;;;;;;14.68;3.60;;;19.00;99.90;;;;;;5020356;28;20046;-60
2022/06/12 08:10:11;;;;;;;13.88;2.88;;;18.80;99.90;;;;;;5018588;28;20522;-60
2022/06/12 08:12:40;;;;;;;17.25;3.25;;;18.60;99.90;;;;;;5002500;28;20050;-60
2022/06/12 08:15:09;;;;;;;12.45;3.17;;;18.30;99.90;;;;;;5019035;28;20037;-59
2022/06/12 08:17:34;;;;;;;13.55;2.80;;;18.30;99.90;;;;;;5018873;28;20061;-60
2022/06/12 08:22:45;;;;;;;15.88;3.22;;;18.20;99.90;;;;;;5018192;28;20054;-60
2022/06/12 08:25:10;;;;;;;9.18;3.17;;;18.20;99.90;;;;;;5020066;28;20044;-60
2022/06/12 08:27:36;;;;;;;11.93;3.13;;;18.30;99.90;;;;;;5018695;28;20048;-59
2022/06/12 08:30:04;;;;;;;15.40;3.53;;;18.40;99.90;;;;;;5019454;28;20425;-60
2022/06/12 08:32:30;;;;;;;13.60;3.00;;;18.40;99.90;;;;;;5019620;28;20048;-59
2022/06/12 08:35:00;;;;;;;13.15;3.75;;;18.60;99.90;;;;;;5018136;28;20038;-60
2022/06/12 08:37:32;;;;;;;14.32;3.13;;;18.60;99.90;;;;;;5002289;28;20050;-60
2022/06/12 08:39:59;;;;;;;13.85;3.70;;;18.70;99.90;;;;;;5018055;28;20784;-60
2022/06/12 08:43:15;;;;;;;11.07;2.90;;;18.80;99.90;;;;;;5019560;28;20041;-60
2022/06/12 08:45:47;;;;;;;15.30;3.00;;;18.80;99.90;;;;;;4920342;29;20048;-60
2022/06/12 08:48:24;;;;;;;14.13;3.15;;;19.00;99.90;;;;;;4919042;29;20060;-60
2022/06/12 08:50:58;;;;;;;11.60;2.50;;;19.00;99.90;;;;;;4986157;28;20058;-60
2022/06/12 08:53:27;;;;;;;10.43;2.92;;;18.70;99.90;;;;;;5018560;28;20064;-59
2022/06/12 08:56:05;;;;;;;13.18;3.03;;;18.40;99.90;;;;;;5018659;28;20104;-60
2022/06/12 08:58:58;;;;;;;14.52;3.20;;;18.60;99.90;;;;;;5019801;28;20046;-60
2022/06/12 09:01:23;;;;;;;;;;;19.00;99.90;;;;;;5018082;28;20581;-59
2022/06/12 09:03:52;;;;;;;12.52;3.13;;;19.10;99.90;;;;;;5019226;28;19929;-60
2022/06/12 09:06:37;;;;;;;14.45;3.10;;;19.30;99.90;;;;;;5017981;28;20066;-59
2022/06/12 09:09:14;;;;;;;14.82;3.58;;;19.50;99.90;;;;;;5018459;28;20076;-60
2022/06/12 09:11:45;;;;;;;17.67;3.40;;;19.80;99.90;;;;;;5019490;28;20034;-59
2022/06/12 09:14:31;;;;;;;12.32;2.85;;;19.30;99.90;;;;;;5017521;28;20049;-60
2022/06/12 09:17:14;;;;;;;12.32;3.30;;;19.00;99.90;;;;;;5018763;28;20057;-60
2022/06/12 09:20:01;;;;;;;11.90;3.30;;;18.90;99.90;;;;;;5001070;28;20057;-59
2022/06/12 09:22:43;;;;;;;10.70;3.03;;;18.60;99.90;;;;;;5017354;28;20053;-59
2022/06/12 09:25:19;;;;;;;13.00;3.13;;;19.00;99.90;;;;;;5018967;28;20061;-59
2022/06/12 09:28:00;;;;;;;12.38;3.00;;;19.00;99.90;;;;;;5018015;28;20053;-59
2022/06/12 09:30:34;;;;;;;12.88;3.90;;;19.20;99.90;;;;;;5018108;28;20045;-59
2022/06/12 09:33:00;;;;;;;14.65;3.22;;;19.50;99.90;;;;;;5019553;28;20449;-59
2022/06/12 09:35:49;;;;;;;9.68;2.92;;;19.50;99.90;;;;;;4999698;28;20457;-59
2022/06/12 09:38:21;;;;;;;10.10;2.80;;;19.10;99.90;;;;;;5018922;28;20061;-59
2022/06/12 09:41:05;;;;;;;11.30;3.00;;;19.10;99.90;;;;;;5018064;28;20054;-59
2022/06/12 09:43:49;;;;;;;8.95;2.85;;;19.30;99.90;;;;;;5017179;28;20045;-59
2022/06/12 09:46:47;;;;;;;10.68;2.50;;;19.20;99.90;;;;;;5019260;28;20046;-59
2022/06/12 09:49:33;;;;;;;12.57;3.00;;;19.60;99.90;;;;;;5017953;28;20053;-58
2022/06/12 09:52:02;;;;;;;9.50;2.42;;;20.30;99.90;;;;;;5017520;28;20049;-60
2022/06/12 09:54:53;;;;;;;8.63;2.75;;;20.20;99.90;;;;;;5019323;28;20073;-59
2022/06/12 09:57:40;;;;;;;13.43;2.42;;;20.00;99.90;;;;;;5011676;28;20061;-59
2022/06/12 10:00:17;;;;;;;10.30;2.10;;;19.50;99.90;;;;;;5021776;28;20179;-60
2022/06/12 10:03:03;;;;;;;10.98;2.28;;;19.40;99.90;;;;;;5022632;28;20050;-59
2022/06/12 10:05:53;;;;;;;7.28;2.13;;;19.60;99.90;;;;;;5020770;28;20080;-59
2022/06/12 10:08:25;;;;;;;7.45;2.40;;;19.80;99.90;;;;;;5022139;28;20525;-60
2022/06/12 10:11:03;;;;;;;8.55;2.10;;;19.40;99.90;;;;;;5021651;28;20046;-59
2022/06/12 10:13:41;;;;;;;9.25;1.95;;;19.60;99.90;;;;;;5002929;28;20053;-60
2022/06/12 10:16:16;;;;;;;8.05;2.00;;;20.00;99.90;;;;;;5022668;28;20042;-59
2022/06/12 10:18:52;;;;;;;8.98;2.30;;;19.70;99.90;;;;;;5020666;28;20058;-59
2022/06/12 10:21:21;;;;;;;7.35;2.40;;;19.50;99.90;;;;;;5022000;28;20050;-59
2022/06/12 10:23:48;;;;;;;8.35;2.10;;;19.50;99.90;;;;;;5021382;28;20516;-59
2022/06/12 10:26:22;;;;;;;8.65;2.38;;;19.60;99.90;;;;;;5020755;28;20066;-59
2022/06/12 10:29:04;;;;;;;8.02;1.92;;;19.70;99.90;;;;;;5022296;28;20517;-59
2022/06/12 10:31:45;;;;;;;8.23;2.17;;;20.00;99.90;;;;;;5020431;28;20081;-59
2022/06/12 10:34:23;;;;;;;7.57;2.27;;;20.10;99.90;;;;;;5021509;28;20458;-59
2022/06/12 10:36:49;;;;;;;10.15;2.10;;;19.90;99.90;;;;;;5021754;28;20046;-59
2022/06/12 10:39:20;;;;;;;8.60;2.20;;;19.50;99.90;;;;;;5020379;28;20068;-59
2022/06/12 10:42:03;;;;;;;8.68;2.33;;;19.70;99.90;;;;;;5022370;28;20100;-59
2022/06/12 10:44:38;;;;;;;11.10;2.55;;;20.20;99.90;;;;;;5020099;28;20105;-59
2022/06/12 10:47:20;;;;;;;9.90;2.55;;;19.90;99.90;;;;;;5021167;28;20065;-59
2022/06/12 10:49:47;;;;;;;6.80;2.10;;;19.80;99.90;;;;;;5004040;28;20057;-59
2022/06/12 10:52:17;;;;;;;7.13;1.90;;;20.10;99.90;;;;;;5020040;28;20038;-60
2022/06/12 10:54:45;;;;;;;10.20;2.13;;;19.90;99.90;;;;;;5022074;28;20591;-59
2022/06/12 10:57:39;;;;;;;8.70;2.15;;;20.00;99.90;;;;;;5020218;28;20099;-59
2022/06/12 11:00:15;;;;;;;7.68;1.80;;;20.10;99.90;;;;;;5020970;28;20087;-59
2022/06/12 11:03:35;;;;;;;9.60;2.30;;;19.70;99.90;;;;;;4988506;28;20050;-58
2022/06/12 11:06:04;;;;;;;7.85;2.10;;;19.60;99.90;;;;;;5020037;28;20542;-60
2022/06/12 11:08:53;;;;;;;11.50;2.35;;;19.80;99.90;;;;;;5020757;28;20053;-60
2022/06/12 11:11:37;;;;;;;7.28;1.98;;;19.90;99.90;;;;;;5020378;28;20054;-60
2022/06/12 11:14:39;;;;;;;10.70;2.05;;;19.90;99.90;;;;;;5019228;28;20556;-60
2022/06/12 11:17:26;;;;;;;9.02;2.17;;;19.60;99.90;;;;;;5020619;28;20450;-60
2022/06/12 11:19:54;;;;;;;11.27;2.92;;;19.60;99.90;;;;;;5021261;28;20050;-59
2022/06/12 11:22:57;;;;;;;11.05;2.40;;;19.40;99.90;;;;;;5019195;28;20077;-60
2022/06/12 11:25:57;;;;;;;9.23;2.50;;;19.80;99.90;;;;;;5020848;28;20518;-60
2022/06/12 11:28:35;;;;;;;9.93;2.47;;;20.10;99.90;;;;;;5021005;28;20034;-60
2022/06/12 11:31:28;;;;;;;7.63;1.80;;;19.30;99.90;;;;;;5019227;28;20046;-62
2022/06/12 11:34:06;;;;;;;6.20;2.00;;;19.60;99.90;;;;;;5020729;28;20084;-58
2022/06/12 11:37:08;;;;;;;9.57;2.45;;;20.20;99.90;;;;;;5020363;28;20060;-58
2022/06/12 11:39:40;;;;;;;13.63;3.05;;;19.90;99.90;;;;;;5018802;28;20057;-59
2022/06/12 11:42:35;;;;;;;11.40;2.47;;;19.20;99.90;;;;;;5020864;28;20053;-59
2022/06/12 11:45:26;;;;;;;9.18;2.50;;;18.90;99.90;;;;;;5019559;28;20049;-58
2022/06/12 11:48:04;;;;;;;10.80;2.40;;;19.50;99.90;;;;;;5019153;28;20053;-58
2022/06/12 11:50:53;;;;;;;7.75;2.15;;;19.40;99.90;;;;;;5020806;28;20046;-59
2022/06/12 11:53:37;;;;;;;8.85;2.28;;;19.00;99.90;;;;;;4998346;28;20409;-59
2022/06/12 11:56:23;;;;;;;8.30;2.70;;;18.90;99.90;;;;;;5001605;28;20517;-59
2022/06/12 11:59:03;;;;;;;11.70;2.50;;;19.20;99.90;;;;;;5020569;28;20069;-59
2022/06/12 12:01:38;;;;;;;8.65;2.50;;;19.60;99.90;;;;;;5018871;28;20128;-59
2022/06/12 12:04:25;;;;;;;9.32;2.15;;;19.40;99.90;;;;;;5020056;28;20092;-59
2022/06/12 12:06:59;;;;;;;11.00;2.70;;;19.20;99.90;;;;;;5020219;28;20038;-59
2022/06/12 12:09:49;;;;;;;10.85;2.50;;;19.30;99.90;;;;;;5018366;28;20050;-58
2022/06/12 12:12:20;;;;;;;8.05;2.10;;;19.60;99.90;;;;;;5020413;28;20053;-59
2022/06/12 12:14:47;;;;;;;10.90;2.47;;;19.60;99.90;;;;;;5018929;28;20042;-59
2022/06/12 12:17:18;;;;;;;12.63;2.40;;;19.60;99.90;;;;;;5019272;28;20080;-59
2022/06/12 12:19:49;;;;;;;9.23;3.10;;;19.90;99.90;;;;;;5020007;28;20137;-59
2022/06/12 12:22:53;;;;;;;11.15;2.03;;;20.00;99.90;;;;;;5017947;28;20057;-61
2022/06/12 12:25:43;;;;;;;10.27;2.22;;;20.20;99.90;;;;;;4998607;28;20050;-60
2022/06/12 12:28:18;;;;;;;8.68;2.40;;;20.30;99.90;;;;;;5019698;28;20060;-59
2022/06/12 12:30:45;;;;;;;10.50;2.28;;;20.40;99.90;;;;;;5018213;28;20466;-60
2022/06/12 12:33:15;;;;;;;12.77;2.58;;;20.70;99.90;;;;;;5020241;28;20049;-59
2022/06/12 12:41:25;;;;;;;6.60;1.85;;;20.70;99.90;;;;;;5019643;28;20080;-60
2022/06/12 12:43:55;;;;;;;7.43;2.10;;;20.90;99.90;;;;;;5017799;28;20041;-60
2022/06/12 12:46:23;;;;;;;9.57;2.40;;;20.80;99.90;;;;;;5019655;28;20042;-60
2022/06/12 12:48:53;;;;;;;9.38;2.60;;;20.70;99.90;;;;;;5018252;28;20275;-59
2022/06/12 12:51:37;;;;;;;8.15;2.10;;;20.40;99.90;;;;;;5018983;28;20049;-60
2022/06/12 12:54:11;;;;;;;11.30;2.65;;;20.10;99.90;;;;;;5019648;28;20109;-60
2022/06/12 12:56:49;;;;;;;10.07;2.35;;;20.30;99.90;;;;;;5017788;28;20057;-60
2022/06/12 12:59:15;;;;;;;9.40;2.28;;;20.40;99.90;;;;;;5019771;28;20053;-60
2022/06/12 13:01:46;;;;;;;8.75;2.22;;;20.50;99.90;;;;;;5018158;28;20034;-60
2022/06/12 13:04:19;;;;;;;12.38;2.88;;;20.10;99.90;;;;;;5019112;28;20038;-60
2022/06/12 13:06:57;;;;;;;10.23;2.97;;;20.30;99.90;;;;;;5019261;28;20040;-59
2022/06/12 13:09:48;;;;;;;9.70;2.50;;;20.50;99.90;;;;;;5017662;28;20046;-60
2022/06/12 13:12:52;;;;;;;7.77;2.43;;;20.50;99.90;;;;;;5019611;28;20061;-60
2022/06/12 13:15:38;;;;;;;9.32;2.38;;;20.20;99.90;;;;;;5019069;28;20289;-60
2022/06/12 13:18:24;;;;;;;10.88;2.40;;;20.50;99.90;;;;;;4999723;28;20065;-60
2022/06/12 13:21:09;;;;;;;9.95;2.47;;;20.60;99.90;;;;;;5018491;28;20628;-60
2022/06/12 13:24:12;;;;;;;11.43;2.70;;;20.70;99.90;;;;;;5018664;28;20054;-59
2022/06/12 13:26:41;;;;;;;9.88;2.70;;;20.60;99.90;;;;;;5017079;28;20076;-59
2022/06/12 13:29:14;;;;;;;8.07;2.42;;;20.90;99.90;;;;;;5019514;28;20072;-61